createdAt,value
2018-06-30T00:02:23.243Z,73.90
2018-06-30T00:04:52.045Z,73.60
2018-06-30T00:07:21.001Z,73.60
2018-06-30T00:09:48.647Z,73.40
2018-06-30T00:12:16.506Z,73.80
2018-06-30T00:14:44.174Z,73.60
2018-06-30T00:17:12.309Z,73.60
2018-06-30T00:19:39.957Z,73.30
2018-06-30T00:22:07.670Z,73.60
2018-06-30T00:24:35.370Z,74.20
2018-06-30T00:27:08.670Z,74.50
2018-06-30T00:29:36.438Z,73.70
2018-06-30T00:32:04.222Z,74.80
2018-06-30T00:34:31.930Z,74.40
2018-06-30T00:36:59.623Z,75.00
2018-06-30T00:39:27.286Z,74.70
2018-06-30T00:41:54.972Z,74.20
2018-06-30T00:44:22.649Z,73.60
2018-06-30T00:46:50.346Z,73.30
2018-06-30T00:49:19.176Z,73.00
2018-06-30T00:51:46.883Z,72.70
2018-06-30T00:54:14.602Z,73.50
2018-06-30T00:56:42.266Z,73.60
2018-06-30T00:59:09.924Z,74.00
2018-06-30T01:01:37.571Z,74.00
2018-06-30T01:04:05.272Z,73.80
2018-06-30T01:06:32.925Z,73.80
2018-06-30T01:09:00.556Z,73.90
2018-06-30T01:11:28.243Z,73.40
2018-06-30T01:13:55.913Z,73.50
2018-06-30T01:16:23.824Z,73.50
2018-06-30T01:18:51.458Z,73.30
2018-06-30T01:21:19.529Z,73.80
2018-06-30T01:23:47.274Z,73.10
2018-06-30T01:26:14.918Z,74.00
2018-06-30T01:28:42.593Z,73.80
2018-06-30T01:31:10.228Z,73.20
2018-06-30T01:33:37.856Z,72.70
2018-06-30T01:36:05.582Z,72.40
2018-06-30T01:38:33.213Z,72.50
2018-06-30T01:41:00.874Z,72.60
2018-06-30T01:43:28.527Z,72.60
2018-06-30T01:45:56.157Z,72.40
2018-06-30T01:48:23.838Z,73.10
2018-06-30T01:50:51.507Z,73.00
2018-06-30T01:53:19.146Z,73.80
2018-06-30T01:55:46.800Z,73.50
2018-06-30T01:58:14.455Z,73.60
2018-06-30T02:00:42.114Z,72.80
2018-06-30T02:03:09.741Z,72.20
2018-06-30T02:05:37.368Z,73.00
2018-06-30T02:08:05.244Z,72.70
2018-06-30T02:10:32.905Z,72.20
2018-06-30T02:13:00.547Z,72.50
2018-06-30T02:15:28.211Z,71.70
2018-06-30T02:17:55.850Z,70.50
2018-06-30T02:20:23.518Z,70.50
2018-06-30T02:22:51.164Z,70.00
2018-06-30T02:25:18.834Z,69.60
2018-06-30T02:27:46.469Z,69.40
2018-06-30T02:30:14.119Z,68.60
2018-06-30T02:32:41.782Z,69.40
2018-06-30T02:35:09.420Z,69.30
2018-06-30T02:37:37.090Z,70.20
2018-06-30T02:40:04.888Z,70.30
2018-06-30T02:42:32.567Z,70.30
2018-06-30T02:45:00.215Z,69.70
2018-06-30T02:47:27.851Z,70.40
2018-06-30T02:49:55.527Z,70.80
2018-06-30T02:52:23.188Z,69.40
2018-06-30T02:54:50.893Z,70.40
2018-06-30T02:57:18.561Z,71.00
2018-06-30T02:59:46.226Z,71.70
2018-06-30T03:02:13.926Z,70.80
2018-06-30T03:04:41.593Z,70.20
2018-06-30T03:07:09.254Z,70.30
2018-06-30T03:09:36.981Z,70.10
2018-06-30T03:12:04.707Z,67.90
2018-06-30T03:14:32.586Z,67.60
2018-06-30T03:17:00.296Z,67.30
2018-06-30T03:19:27.939Z,66.80
2018-06-30T03:21:55.615Z,67.60
2018-06-30T03:24:23.271Z,66.90
2018-06-30T03:29:18.614Z,65.40
2018-06-30T03:31:46.333Z,66.40
2018-06-30T03:34:13.914Z,66.20
2018-06-30T03:36:41.593Z,66.60
2018-06-30T03:39:10.604Z,66.50
2018-06-30T03:41:38.270Z,67.20
2018-06-30T03:44:06.048Z,66.10
2018-06-30T03:46:33.657Z,66.80
2018-06-30T03:49:01.308Z,66.50
2018-06-30T03:51:28.936Z,67.10
2018-06-30T03:53:56.743Z,65.80
2018-06-30T03:56:24.565Z,66.60
2018-06-30T03:58:52.388Z,67.00
2018-06-30T04:01:20.001Z,65.70
2018-06-30T04:03:47.654Z,66.50
2018-06-30T04:06:15.322Z,67.10
2018-06-30T04:08:42.977Z,66.30
2018-06-30T04:11:10.683Z,67.90
2018-06-30T04:13:38.301Z,67.70
2018-06-30T04:16:05.958Z,67.50
2018-06-30T04:18:33.630Z,68.50
2018-06-30T04:21:01.289Z,68.80
2018-06-30T04:23:28.942Z,69.30
2018-06-30T04:25:56.594Z,69.90
2018-06-30T04:28:24.241Z,69.20
2018-06-30T04:30:51.883Z,69.90
2018-06-30T04:33:19.551Z,70.10
2018-06-30T04:35:47.198Z,70.20
2018-06-30T04:38:14.929Z,70.70
2018-06-30T04:40:42.567Z,69.80
2018-06-30T04:43:10.221Z,68.90
2018-06-30T04:45:37.926Z,69.50
2018-06-30T04:48:06.131Z,69.60
2018-06-30T04:50:33.790Z,68.60
2018-06-30T04:53:01.406Z,67.70
2018-06-30T04:55:29.094Z,67.90
2018-06-30T04:57:56.718Z,66.90
2018-06-30T05:00:24.395Z,67.90
2018-06-30T05:02:52.041Z,68.80
2018-06-30T05:05:19.656Z,68.40
2018-06-30T05:07:47.304Z,68.00
2018-06-30T05:10:14.926Z,67.80
2018-06-30T05:12:42.552Z,68.50
2018-06-30T05:15:10.198Z,69.30
2018-06-30T05:17:37.842Z,69.10
2018-06-30T05:20:05.549Z,68.30
2018-06-30T05:22:33.208Z,68.50
2018-06-30T05:25:00.890Z,68.40
2018-06-30T05:27:28.584Z,69.60
2018-06-30T05:29:56.594Z,68.20
2018-06-30T05:32:24.232Z,68.00
2018-06-30T05:34:51.841Z,67.00
2018-06-30T05:37:19.570Z,69.00
2018-06-30T05:39:47.259Z,67.70
2018-06-30T05:42:14.885Z,67.30
2018-06-30T05:44:42.534Z,67.30
2018-06-30T05:47:10.214Z,65.50
2018-06-30T05:49:37.900Z,64.70
2018-06-30T05:52:05.603Z,64.50
2018-06-30T05:54:33.224Z,64.60
2018-06-30T05:57:00.891Z,64.00
2018-06-30T05:59:28.627Z,64.50
2018-06-30T06:01:56.230Z,63.30
2018-06-30T06:04:23.884Z,61.70
2018-06-30T06:06:51.612Z,62.00
2018-06-30T06:09:19.258Z,62.20
2018-06-30T06:11:46.915Z,62.40
2018-06-30T06:14:14.579Z,60.60
2018-06-30T06:16:42.197Z,61.30
2018-06-30T06:19:09.838Z,61.10
2018-06-30T06:21:37.529Z,60.20
2018-06-30T06:24:05.304Z,60.00
2018-06-30T06:26:32.979Z,59.40
2018-06-30T06:29:00.666Z,62.30
2018-06-30T06:31:28.325Z,61.70
2018-06-30T06:33:55.970Z,60.30
2018-06-30T06:36:23.622Z,60.60
2018-06-30T06:38:51.247Z,61.30
2018-06-30T06:41:18.871Z,61.70
2018-06-30T06:43:46.488Z,60.70
2018-06-30T06:46:14.146Z,61.30
2018-06-30T06:48:41.782Z,60.50
2018-06-30T06:51:09.399Z,61.00
2018-06-30T06:53:37.105Z,59.60
2018-06-30T06:56:04.778Z,58.90
2018-06-30T06:58:32.485Z,58.90
2018-06-30T07:01:00.116Z,58.00
2018-06-30T07:03:27.761Z,58.80
2018-06-30T07:05:55.431Z,59.70
2018-06-30T07:08:23.150Z,60.30
2018-06-30T07:10:51.155Z,59.00
2018-06-30T07:13:18.821Z,58.30
2018-06-30T07:15:46.479Z,58.90
2018-06-30T07:18:14.235Z,58.50
2018-06-30T07:20:41.878Z,58.60
2018-06-30T07:23:09.519Z,55.90
2018-06-30T07:25:37.233Z,55.50
2018-06-30T07:28:04.886Z,56.30
2018-06-30T07:30:32.524Z,58.60
2018-06-30T07:33:00.201Z,55.50
2018-06-30T07:35:27.899Z,57.20
2018-06-30T07:37:55.675Z,55.80
2018-06-30T07:40:23.330Z,56.20
2018-06-30T07:42:51.025Z,55.70
2018-06-30T07:45:18.687Z,56.50
2018-06-30T07:47:46.393Z,58.70
2018-06-30T07:50:14.161Z,55.50
2018-06-30T07:52:41.791Z,55.70
2018-06-30T07:55:09.413Z,54.70
2018-06-30T07:57:37.070Z,56.30
2018-06-30T08:00:05.023Z,55.60
2018-06-30T08:02:32.674Z,54.80
2018-06-30T08:05:00.334Z,55.00
2018-06-30T08:07:28.069Z,55.70
2018-06-30T08:09:55.823Z,55.00
2018-06-30T08:12:23.674Z,56.00
2018-06-30T08:14:51.328Z,53.90
2018-06-30T08:17:19.011Z,52.60
2018-06-30T08:19:46.775Z,52.30
2018-06-30T08:22:14.420Z,54.20
2018-06-30T08:24:42.150Z,51.90
2018-06-30T08:27:09.853Z,53.20
2018-06-30T08:29:37.749Z,51.30
2018-06-30T08:32:05.419Z,50.00
2018-06-30T08:34:33.058Z,50.40
2018-06-30T08:37:00.830Z,49.90
2018-06-30T08:39:28.512Z,52.30
2018-06-30T08:41:56.184Z,51.20
2018-06-30T08:44:23.908Z,52.70
2018-06-30T08:49:19.177Z,51.80
2018-06-30T08:51:46.911Z,48.40
2018-06-30T08:54:15.170Z,50.10
2018-06-30T08:56:42.862Z,50.30
2018-06-30T08:59:10.527Z,49.80
2018-06-30T09:04:06.009Z,50.40
2018-06-30T09:06:33.713Z,48.80
2018-06-30T09:09:01.443Z,48.60
2018-06-30T09:11:29.552Z,48.00
2018-06-30T09:13:57.266Z,47.00
2018-06-30T09:16:25.431Z,48.90
2018-06-30T09:18:53.431Z,48.80
2018-06-30T09:21:21.060Z,45.70
2018-06-30T09:23:48.730Z,47.00
2018-06-30T09:26:16.381Z,46.60
2018-06-30T09:28:44.031Z,47.90
2018-06-30T09:31:11.692Z,48.60
2018-06-30T09:33:39.353Z,47.30
2018-06-30T09:36:07.398Z,46.70
2018-06-30T09:38:35.158Z,43.20
2018-06-30T09:41:02.857Z,45.80
2018-06-30T09:43:30.496Z,44.00
2018-06-30T09:45:58.217Z,45.70
2018-06-30T09:48:25.880Z,44.60
2018-06-30T09:50:53.593Z,45.80
2018-06-30T09:53:21.252Z,43.20
2018-06-30T09:55:48.913Z,44.50
2018-06-30T09:58:16.618Z,43.80
2018-06-30T10:00:54.693Z,46.60
2018-06-30T10:03:23.178Z,43.60
2018-06-30T10:05:50.856Z,43.50
2018-06-30T10:08:19.629Z,40.00
2018-06-30T10:10:47.290Z,41.90
2018-06-30T10:13:15.139Z,42.00
2018-06-30T10:15:42.930Z,40.80
2018-06-30T10:18:10.680Z,42.70
2018-06-30T10:20:38.410Z,40.80
2018-06-30T10:23:06.130Z,43.20
2018-06-30T10:25:34.138Z,43.40
2018-06-30T10:28:01.842Z,41.90
2018-06-30T10:30:29.537Z,39.30
2018-06-30T10:35:24.884Z,40.10
2018-06-30T10:37:56.008Z,40.80
2018-06-30T10:42:51.353Z,39.20
2018-06-30T10:45:19.012Z,39.10
2018-06-30T10:47:46.700Z,38.90
2018-06-30T10:50:14.390Z,39.50
2018-06-30T10:52:42.069Z,38.90
2018-06-30T10:55:09.786Z,39.70
2018-06-30T10:57:37.531Z,38.90
2018-06-30T11:00:05.425Z,39.10
2018-06-30T11:02:33.130Z,37.60
2018-06-30T11:05:00.839Z,38.70
2018-06-30T11:07:28.531Z,41.00
2018-06-30T11:09:56.905Z,39.10
2018-06-30T11:12:24.550Z,39.60
2018-06-30T11:14:53.088Z,37.10
2018-06-30T11:17:20.810Z,36.20
2018-06-30T11:19:48.606Z,38.40
2018-06-30T11:22:16.281Z,36.50
2018-06-30T11:24:43.929Z,37.70
2018-06-30T11:27:11.615Z,35.60
2018-06-30T11:29:39.245Z,37.60
2018-06-30T11:32:06.926Z,37.80
2018-06-30T11:34:34.533Z,38.80
2018-06-30T11:37:02.205Z,37.00
2018-06-30T11:39:29.896Z,38.10
2018-06-30T11:41:57.603Z,35.40
2018-06-30T11:44:25.262Z,37.10
2018-06-30T11:46:52.946Z,36.00
2018-06-30T11:51:48.230Z,37.50
2018-06-30T11:54:15.902Z,38.00
2018-06-30T11:56:43.609Z,37.90
2018-06-30T11:59:11.237Z,36.20
2018-06-30T12:01:38.890Z,35.10
2018-06-30T12:04:06.515Z,35.40
2018-06-30T12:06:34.182Z,35.90
2018-06-30T12:09:01.846Z,36.50
2018-06-30T12:11:29.542Z,38.40
2018-06-30T12:13:57.155Z,40.20
2018-06-30T12:16:24.810Z,38.80
2018-06-30T12:18:52.461Z,38.00
2018-06-30T12:21:20.169Z,39.20
2018-06-30T12:23:47.857Z,39.70
2018-06-30T12:26:15.502Z,38.20
2018-06-30T12:28:43.164Z,37.00
2018-06-30T12:31:10.843Z,41.50
2018-06-30T12:33:38.480Z,37.50
2018-06-30T12:36:06.162Z,38.50
2018-06-30T12:38:33.881Z,37.10
2018-06-30T12:41:01.563Z,38.20
2018-06-30T12:43:29.247Z,36.10
2018-06-30T12:45:56.889Z,37.40
2018-06-30T12:48:24.578Z,38.70
2018-06-30T12:50:52.235Z,38.30
2018-06-30T12:53:19.914Z,40.30
2018-06-30T12:55:47.742Z,38.80
2018-06-30T12:58:15.373Z,38.90
2018-06-30T13:00:43.042Z,39.00
2018-06-30T13:03:10.747Z,40.30
2018-06-30T13:05:38.419Z,39.30
2018-06-30T13:08:06.094Z,39.80
2018-06-30T13:10:33.846Z,40.30
2018-06-30T13:13:01.489Z,41.60
2018-06-30T13:15:29.135Z,41.80
2018-06-30T13:17:56.795Z,41.90
2018-06-30T13:20:24.464Z,43.70
2018-06-30T13:22:52.139Z,38.00
2018-06-30T13:25:19.753Z,39.20
2018-06-30T13:27:47.422Z,38.50
2018-06-30T13:30:15.074Z,39.50
2018-06-30T13:32:42.760Z,37.70
2018-06-30T13:35:10.416Z,37.60
2018-06-30T13:37:38.124Z,38.70
2018-06-30T13:40:05.823Z,39.20
2018-06-30T13:42:33.590Z,39.80
2018-06-30T13:45:01.242Z,38.00
2018-06-30T13:47:28.890Z,40.70
2018-06-30T13:49:56.531Z,40.20
2018-06-30T13:52:24.201Z,41.50
2018-06-30T13:54:51.907Z,40.80
2018-06-30T13:57:19.605Z,40.20
2018-06-30T13:59:47.271Z,41.80
2018-06-30T14:02:14.926Z,41.60
2018-06-30T14:04:42.552Z,41.90
2018-06-30T14:07:10.240Z,41.40
2018-06-30T14:09:37.880Z,39.00
2018-06-30T14:12:05.614Z,40.20
2018-06-30T14:14:33.306Z,40.80
2018-06-30T14:17:00.940Z,41.10
2018-06-30T14:19:28.561Z,40.00
2018-06-30T14:21:56.218Z,41.10
2018-06-30T14:24:23.910Z,42.60
2018-06-30T14:26:51.614Z,43.40
2018-06-30T14:29:19.276Z,42.60
2018-06-30T14:31:46.921Z,41.60
2018-06-30T14:34:14.574Z,40.70
2018-06-30T14:36:42.249Z,38.60
2018-06-30T14:39:11.542Z,40.80
2018-06-30T14:41:39.306Z,41.90
2018-06-30T14:44:07.079Z,41.60
2018-06-30T14:46:35.063Z,41.10
2018-06-30T14:49:03.344Z,41.50
2018-06-30T14:51:31.102Z,42.00
2018-06-30T14:53:58.769Z,42.40
2018-06-30T14:56:26.486Z,41.90
2018-06-30T14:58:54.350Z,41.60
2018-06-30T15:01:22.078Z,42.10
2018-06-30T15:03:49.804Z,40.80
2018-06-30T15:06:17.497Z,41.30
2018-06-30T15:08:45.227Z,40.40
2018-06-30T15:11:12.887Z,39.90
2018-06-30T15:13:40.521Z,39.00
2018-06-30T15:16:08.243Z,40.90
2018-06-30T15:18:35.962Z,39.70
2018-06-30T15:21:03.678Z,40.50
2018-06-30T15:23:31.351Z,41.40
2018-06-30T15:25:59.015Z,39.70
2018-06-30T15:28:26.674Z,42.00
2018-06-30T15:30:54.315Z,43.00
2018-06-30T15:33:21.979Z,41.90
2018-06-30T15:35:49.729Z,41.50
2018-06-30T15:38:17.323Z,41.90
2018-06-30T15:40:45.050Z,43.00
2018-06-30T15:43:12.742Z,42.70
2018-06-30T15:45:40.459Z,44.20
2018-06-30T15:48:08.146Z,43.30
2018-06-30T15:50:35.857Z,42.30
2018-06-30T15:53:03.565Z,41.30
2018-06-30T15:55:31.221Z,42.70
2018-06-30T15:57:58.903Z,41.70
2018-06-30T16:00:26.586Z,41.30
2018-06-30T16:02:54.339Z,41.40
2018-06-30T16:05:22.027Z,41.90
2018-06-30T16:07:49.665Z,43.80
2018-06-30T16:10:17.338Z,42.90
2018-06-30T16:12:45.073Z,42.70
2018-06-30T16:15:12.754Z,45.00
2018-06-30T16:17:40.418Z,44.90
2018-06-30T16:20:08.186Z,44.30
2018-06-30T16:22:35.864Z,44.60
2018-06-30T16:25:04.037Z,44.30
2018-06-30T16:27:31.718Z,45.60
2018-06-30T16:29:59.377Z,44.60
2018-06-30T16:32:27.042Z,45.90
2018-06-30T16:34:54.678Z,44.50
2018-06-30T16:37:22.342Z,44.90
2018-06-30T16:39:49.991Z,44.60
2018-06-30T16:42:17.736Z,44.70
2018-06-30T16:44:45.397Z,46.80
2018-06-30T16:47:13.188Z,46.70
2018-06-30T16:49:41.136Z,44.80
2018-06-30T16:52:08.794Z,45.10
2018-06-30T16:54:36.437Z,45.80
2018-06-30T16:57:04.153Z,46.40
2018-06-30T16:59:31.842Z,44.40
2018-06-30T17:01:59.594Z,44.90
2018-06-30T17:04:27.244Z,46.20
2018-06-30T17:06:54.974Z,46.10
2018-06-30T17:09:22.610Z,46.00
2018-06-30T17:11:50.341Z,46.10
2018-06-30T17:14:17.979Z,45.40
2018-06-30T17:16:45.644Z,45.20
2018-06-30T17:19:13.305Z,47.30
2018-06-30T17:21:42.019Z,47.10
2018-06-30T17:24:09.701Z,47.50
2018-06-30T17:26:37.448Z,47.30
2018-06-30T17:29:05.044Z,47.10
2018-06-30T17:31:32.726Z,46.40
2018-06-30T17:34:00.402Z,48.00
2018-06-30T17:36:28.041Z,48.70
2018-06-30T17:38:55.744Z,46.40
2018-06-30T17:41:23.392Z,47.10
2018-06-30T17:43:51.307Z,46.90
2018-06-30T17:46:18.960Z,48.10
2018-06-30T17:48:46.658Z,48.80
2018-06-30T17:51:14.419Z,49.70
2018-06-30T17:53:42.055Z,49.30
2018-06-30T17:56:09.726Z,48.40
2018-06-30T17:58:37.391Z,48.80
2018-06-30T18:01:05.092Z,49.80
2018-06-30T18:03:32.800Z,50.10
2018-06-30T18:06:00.463Z,49.30
2018-06-30T18:08:28.113Z,48.40
2018-06-30T18:10:55.922Z,49.50
2018-06-30T18:13:23.656Z,50.90
2018-06-30T18:15:51.369Z,49.80
2018-06-30T18:18:18.996Z,48.80
2018-06-30T18:20:46.670Z,49.60
2018-06-30T18:23:14.322Z,51.00
2018-06-30T18:25:42.020Z,51.80
2018-06-30T18:28:09.692Z,52.80
2018-06-30T18:30:37.407Z,53.20
2018-06-30T18:33:05.068Z,53.30
2018-06-30T18:35:32.773Z,52.30
2018-06-30T18:38:00.503Z,53.30
2018-06-30T18:40:28.200Z,52.70
2018-06-30T18:42:55.861Z,53.00
2018-06-30T18:45:23.547Z,52.20
2018-06-30T18:47:51.287Z,52.40
2018-06-30T18:50:18.945Z,53.60
2018-06-30T18:52:47.090Z,53.10
2018-06-30T18:55:14.818Z,52.30
2018-06-30T18:57:42.510Z,53.20
2018-06-30T19:00:10.279Z,52.90
2018-06-30T19:02:37.970Z,53.10
2018-06-30T19:05:05.722Z,53.20
2018-06-30T19:07:33.433Z,52.80
2018-06-30T19:10:01.371Z,53.70
2018-06-30T19:12:29.026Z,53.90
2018-06-30T19:14:56.838Z,53.80
2018-06-30T19:17:24.509Z,54.80
2018-06-30T19:19:52.444Z,54.90
2018-06-30T19:22:20.163Z,55.60
2018-06-30T19:24:47.962Z,55.90
2018-06-30T19:27:15.623Z,55.60
2018-06-30T19:29:43.330Z,54.70
2018-06-30T19:32:10.996Z,54.70
2018-06-30T19:34:38.677Z,55.20
2018-06-30T19:37:06.363Z,53.50
2018-06-30T19:39:34.172Z,54.60
2018-06-30T19:42:01.881Z,55.00
2018-06-30T19:46:57.198Z,54.80
2018-06-30T19:49:24.885Z,53.80
2018-06-30T19:51:52.533Z,55.20
2018-06-30T19:54:20.165Z,54.80
2018-06-30T19:56:47.876Z,54.50
2018-06-30T19:59:25.661Z,54.10
2018-06-30T20:01:53.328Z,54.30
2018-06-30T20:04:20.985Z,54.60
2018-06-30T20:06:48.652Z,53.40
2018-06-30T20:09:16.416Z,53.80
2018-06-30T20:11:46.138Z,54.00
2018-06-30T20:14:13.796Z,53.90
2018-06-30T20:16:41.502Z,54.90
2018-06-30T20:19:09.151Z,54.60
2018-06-30T20:21:36.809Z,54.80
2018-06-30T20:24:04.488Z,53.40
2018-06-30T20:26:33.016Z,54.80
2018-06-30T20:29:00.729Z,54.10
2018-06-30T20:31:28.417Z,53.80
2018-06-30T20:33:56.078Z,54.50
2018-06-30T20:36:23.796Z,54.30
2018-06-30T20:38:51.589Z,53.70
2018-06-30T20:41:19.371Z,53.40
2018-06-30T20:43:47.071Z,54.40
2018-06-30T20:46:14.727Z,54.00
2018-06-30T20:48:42.487Z,54.20
2018-06-30T20:51:10.122Z,54.80
2018-06-30T20:53:38.912Z,55.30
2018-06-30T20:56:06.644Z,54.50
2018-06-30T20:58:34.275Z,55.30
2018-06-30T21:01:02.022Z,54.60
2018-06-30T21:03:29.689Z,55.60
2018-06-30T21:05:57.361Z,55.70
2018-06-30T21:08:25.053Z,55.10
2018-06-30T21:10:52.869Z,55.10
2018-06-30T21:13:20.530Z,55.20
2018-06-30T21:15:48.254Z,55.20
2018-06-30T21:18:15.983Z,55.60
2018-06-30T21:20:43.708Z,56.90
2018-06-30T21:23:11.431Z,54.10
2018-06-30T21:25:39.106Z,55.00
2018-06-30T21:28:06.956Z,55.40
2018-06-30T21:30:34.638Z,57.60
2018-06-30T21:33:02.315Z,56.20
2018-06-30T21:35:29.978Z,57.60
2018-06-30T21:37:57.638Z,57.00
2018-06-30T21:40:25.260Z,56.90
2018-06-30T21:42:52.974Z,58.60
2018-06-30T21:45:20.638Z,57.90
2018-06-30T21:47:48.295Z,58.40
2018-06-30T21:50:15.953Z,58.60
2018-06-30T21:52:43.584Z,58.80
2018-06-30T21:57:38.835Z,59.00
2018-06-30T22:00:10.238Z,59.90
2018-06-30T22:02:37.937Z,60.50
2018-06-30T22:05:05.658Z,60.60
2018-06-30T22:07:33.325Z,60.90
2018-06-30T22:10:00.957Z,61.00
2018-06-30T22:12:28.623Z,59.70
2018-06-30T22:14:56.555Z,60.00
2018-06-30T22:17:24.266Z,61.10
2018-06-30T22:19:51.935Z,61.10
2018-06-30T22:22:19.581Z,61.30
2018-06-30T22:24:47.268Z,61.70
2018-06-30T22:27:14.901Z,61.60
2018-06-30T22:29:42.562Z,62.00
2018-06-30T22:32:10.250Z,62.40
2018-06-30T22:34:37.912Z,63.40
2018-06-30T22:37:05.765Z,63.10
2018-06-30T22:39:44.696Z,63.30
2018-06-30T22:42:12.404Z,63.40
2018-06-30T22:44:40.059Z,63.20
2018-06-30T22:47:08.127Z,64.20
2018-06-30T22:49:35.788Z,63.70
2018-06-30T22:52:03.475Z,63.20
2018-06-30T22:54:31.138Z,65.10
2018-06-30T22:56:58.801Z,64.90
2018-06-30T22:59:26.442Z,65.30
2018-06-30T23:01:54.135Z,64.90
2018-06-30T23:04:21.830Z,64.60
2018-06-30T23:06:49.498Z,64.20
2018-06-30T23:09:17.139Z,65.30
2018-06-30T23:11:44.818Z,65.20
2018-06-30T23:14:12.474Z,64.50
2018-06-30T23:16:40.154Z,64.50
2018-06-30T23:19:07.819Z,64.70
2018-06-30T23:21:35.471Z,65.40
2018-06-30T23:24:03.187Z,66.10
2018-06-30T23:26:30.922Z,64.90
2018-06-30T23:28:58.550Z,66.10
2018-06-30T23:31:26.215Z,65.60
2018-06-30T23:33:53.869Z,66.90
2018-06-30T23:36:21.514Z,66.30
2018-06-30T23:38:49.154Z,66.60
2018-06-30T23:41:16.825Z,66.70
2018-06-30T23:43:44.532Z,66.10
2018-06-30T23:46:12.177Z,67.00
2018-06-30T23:48:39.834Z,66.80
2018-06-30T23:51:07.531Z,66.60
2018-06-30T23:53:35.199Z,66.50
2018-06-30T23:56:02.937Z,66.60
2018-06-30T23:58:30.590Z,67.60
